Time;durP1;ratioP1;P1;durP2;ratioP2;P2;SDS_P1;SDS_P2;PMS_P1;PMS_P2;Temp;Humidity;BMP_temperature;BMP_pressure;BME280_temperature;BME280_humidity;BME280_pressure;Samples;Min_cycle;Max_cycle;Signal;HPM_P1;HPM_P2
2022/04/30 00:02:10;;;;;;;44.47;27.03;;;8.80;99.90;;;;;;5018946;28;20215;-69
2022/04/30 00:04:42;;;;;;;45.40;27.77;;;8.80;99.90;;;;;;5018736;28;20708;-69
2022/04/30 00:07:16;;;;;;;48.77;27.57;;;8.80;99.90;;;;;;5018750;28;20199;-68
2022/04/30 00:09:44;;;;;;;46.23;27.30;;;8.80;99.90;;;;;;5018699;28;20203;-68
2022/04/30 00:12:11;;;;;;;44.80;27.47;;;8.80;99.90;;;;;;5018690;28;20298;-68
2022/04/30 00:14:39;;;;;;;45.33;27.17;;;8.80;99.90;;;;;;5018869;28;20302;-69
2022/04/30 00:17:07;;;;;;;44.10;26.67;;;8.80;99.90;;;;;;5018858;28;20203;-69
2022/04/30 00:19:34;;;;;;;44.13;26.80;;;8.80;99.90;;;;;;5018526;28;20222;-68
2022/04/30 00:22:02;;;;;;;44.87;26.47;;;8.80;99.90;;;;;;5019273;28;20233;-69
2022/04/30 00:24:29;;;;;;;47.23;28.00;;;8.80;99.90;;;;;;5034971;28;20199;-70
2022/04/30 00:26:59;;;;;;;45.20;27.90;;;8.70;99.90;;;;;;5018462;28;20199;-68
2022/04/30 00:29:30;;;;;;;45.67;27.03;;;8.60;99.90;;;;;;5018804;28;20229;-69
2022/04/30 00:32:00;;;;;;;47.43;27.37;;;8.60;99.90;;;;;;5018173;28;20302;-68
2022/04/30 00:34:28;;;;;;;50.33;28.10;;;8.50;99.90;;;;;;5018133;28;20191;-68
2022/04/30 00:36:56;;;;;;;44.07;26.57;;;8.40;99.90;;;;;;5018278;28;20203;-68
2022/04/30 00:39:23;;;;;;;46.53;27.30;;;8.40;99.90;;;;;;5018337;28;20299;-68
2022/04/30 00:41:50;;;;;;;44.87;26.30;;;8.40;99.90;;;;;;5035766;28;20247;-68
2022/04/30 00:44:18;;;;;;;46.40;27.37;;;8.30;99.90;;;;;;5018261;28;20217;-68
2022/04/30 00:46:45;;;;;;;46.63;26.27;;;8.30;99.90;;;;;;5035785;28;20195;-69
2022/04/30 00:49:13;;;;;;;43.87;26.77;;;8.30;99.90;;;;;;5034678;28;20191;-68
2022/04/30 00:51:41;;;;;;;43.27;26.47;;;8.20;99.90;;;;;;5017955;28;20317;-68
2022/04/30 00:54:10;;;;;;;44.90;26.87;;;8.30;99.90;;;;;;5017792;28;20202;-69
2022/04/30 00:56:55;;;;;;;44.77;26.90;;;8.30;99.90;;;;;;5017653;28;20314;-70
2022/04/30 00:59:24;;;;;;;47.93;27.70;;;8.20;99.90;;;;;;5017863;28;20288;-68
2022/04/30 01:01:51;;;;;;;43.63;27.63;;;8.10;99.90;;;;;;5017520;28;20245;-69
2022/04/30 01:04:19;;;;;;;44.47;26.87;;;8.20;99.90;;;;;;5046404;28;20196;-69
2022/04/30 01:06:50;;;;;;;45.27;26.67;;;8.20;99.90;;;;;;5035273;28;20198;-68
2022/04/30 01:09:20;;;;;;;47.73;27.47;;;8.20;99.90;;;;;;5017914;28;20294;-69
2022/04/30 01:11:56;;;;;;;42.53;25.97;;;8.20;99.90;;;;;;5017819;28;20728;-70
2022/04/30 01:14:26;;;;;;;43.67;25.70;;;8.10;99.90;;;;;;5017444;28;20214;-69
2022/04/30 01:16:57;;;;;;;44.07;26.97;;;8.10;99.90;;;;;;5017700;28;20206;-71
2022/04/30 01:19:27;;;;;;;42.60;25.20;;;8.10;99.90;;;;;;5017520;28;20286;-69
2022/04/30 01:21:58;;;;;;;44.07;27.37;;;8.00;99.90;;;;;;5017670;28;20213;-70
2022/04/30 01:24:26;;;;;;;48.03;26.57;;;8.00;99.90;;;;;;5017536;28;20239;-70
2022/04/30 01:26:54;;;;;;;43.67;26.30;;;8.00;99.90;;;;;;5017257;28;20245;-70
2022/04/30 01:29:23;;;;;;;42.87;26.47;;;7.90;99.90;;;;;;5017345;28;20227;-69
2022/04/30 01:37:27;;;;;;;44.63;25.17;;;7.80;99.90;;;;;;5034908;28;20242;-68
2022/04/30 01:40:03;;;;;;;43.77;25.33;;;7.70;99.90;;;;;;5026985;28;20226;-69
2022/04/30 01:42:35;;;;;;;39.57;24.90;;;7.70;99.90;;;;;;5017186;28;20213;-68
2022/04/30 01:45:04;;;;;;;42.47;26.37;;;7.60;99.90;;;;;;5017025;28;20230;-69
2022/04/30 01:47:33;;;;;;;43.13;26.37;;;7.60;99.90;;;;;;5017127;28;20680;-67
2022/04/30 01:50:01;;;;;;;40.33;25.30;;;7.60;99.90;;;;;;5017685;28;20213;-68
2022/04/30 01:52:28;;;;;;;41.33;26.23;;;7.60;99.90;;;;;;5016876;28;20627;-68
2022/04/30 01:54:55;;;;;;;43.33;26.27;;;7.60;99.90;;;;;;5033230;28;20218;-68
2022/04/30 01:57:26;;;;;;;40.60;26.17;;;7.60;99.90;;;;;;5033284;28;20252;-68
2022/04/30 01:59:57;;;;;;;41.40;24.53;;;7.50;99.90;;;;;;5016994;28;20195;-68
2022/04/30 02:02:30;;;;;;;44.90;25.33;;;7.50;99.90;;;;;;5032868;28;20318;-68
2022/04/30 02:05:00;;;;;;;45.90;26.10;;;7.50;99.90;;;;;;5033089;28;20206;-67
2022/04/30 02:07:28;;;;;;;48.27;27.13;;;7.50;99.90;;;;;;5016689;28;20721;-68
2022/04/30 02:09:58;;;;;;;43.40;25.97;;;7.50;99.90;;;;;;5019038;28;20203;-67
2022/04/30 02:12:29;;;;;;;40.93;25.70;;;7.50;99.90;;;;;;5025584;28;20202;-67
2022/04/30 02:14:57;;;;;;;43.93;26.30;;;7.40;99.90;;;;;;5016462;28;20230;-68
2022/04/30 02:17:28;;;;;;;43.33;25.57;;;7.30;99.90;;;;;;5000181;28;20201;-67
2022/04/30 02:22:42;;;;;;;44.07;26.10;;;7.40;99.90;;;;;;5016342;28;20621;-68
2022/04/30 02:25:12;;;;;;;43.57;25.10;;;7.40;99.90;;;;;;5016031;28;20657;-68
2022/04/30 02:27:42;;;;;;;43.70;25.50;;;7.30;99.90;;;;;;5016671;28;20203;-68
2022/04/30 02:30:11;;;;;;;43.37;25.20;;;7.30;99.90;;;;;;5016221;28;20294;-68
2022/04/30 02:32:48;;;;;;;40.93;26.20;;;7.40;99.90;;;;;;5016236;28;20234;-68
2022/04/30 02:35:20;;;;;;;42.03;25.17;;;7.30;99.90;;;;;;5015754;28;20202;-68
2022/04/30 02:37:52;;;;;;;46.27;25.83;;;7.30;99.90;;;;;;5015998;28;20667;-67
2022/04/30 02:40:21;;;;;;;41.60;25.63;;;7.30;99.90;;;;;;5036309;28;20613;-67
2022/04/30 02:42:51;;;;;;;44.47;25.13;;;7.30;99.90;;;;;;5026912;28;20298;-67
2022/04/30 02:45:19;;;;;;;45.90;27.97;;;7.20;99.90;;;;;;5035722;28;20244;-68
2022/04/30 02:47:52;;;;;;;42.97;25.10;;;7.30;99.90;;;;;;5035640;28;20201;-68
2022/04/30 02:50:22;;;;;;;43.50;26.17;;;7.30;99.90;;;;;;5035709;28;20233;-67
2022/04/30 02:52:50;;;;;;;43.17;25.73;;;7.30;99.90;;;;;;5035655;28;20233;-68
2022/04/30 02:55:17;;;;;;;41.70;25.47;;;7.30;99.90;;;;;;5035569;28;20247;-67
2022/04/30 03:00:34;;;;;;;47.27;27.83;;;7.30;99.90;;;;;;5036420;28;20296;-67
2022/04/30 03:03:01;;;;;;;48.57;27.53;;;7.20;99.90;;;;;;5035832;28;20298;-69
2022/04/30 03:05:30;;;;;;;48.20;27.27;;;7.30;99.90;;;;;;5035386;28;20240;-69
2022/04/30 03:07:58;;;;;;;49.43;28.83;;;7.30;99.90;;;;;;5035346;28;20719;-69
2022/04/30 03:10:25;;;;;;;47.20;27.63;;;7.30;99.90;;;;;;5051483;28;20237;-69
2022/04/30 03:12:52;;;;;;;43.90;26.53;;;7.20;99.90;;;;;;5014792;28;20230;-70
2022/04/30 03:15:21;;;;;;;46.10;26.97;;;7.30;99.90;;;;;;5015451;28;20285;-69
2022/04/30 03:23:20;;;;;;;45.37;27.53;;;7.30;99.90;;;;;;5015352;28;20298;-69
2022/04/30 03:25:47;;;;;;;49.00;27.83;;;7.30;99.90;;;;;;5033081;28;20752;-69
2022/04/30 03:28:14;;;;;;;50.83;29.23;;;7.40;99.90;;;;;;5015386;28;20745;-70
2022/04/30 03:30:41;;;;;;;50.13;29.73;;;7.50;99.90;;;;;;5033068;28;20651;-71
2022/04/30 03:33:08;;;;;;;50.43;28.50;;;7.50;99.90;;;;;;4999227;28;20731;-68
2022/04/30 03:35:38;;;;;;;47.37;28.50;;;7.50;99.90;;;;;;5015343;28;20199;-69
2022/04/30 03:38:09;;;;;;;44.97;29.20;;;7.40;99.90;;;;;;5015489;28;20265;-69
2022/04/30 03:40:40;;;;;;;48.97;29.50;;;7.30;99.90;;;;;;5015673;28;20200;-67
2022/04/30 03:43:07;;;;;;;46.90;28.13;;;7.10;99.90;;;;;;5015776;28;20293;-69
2022/04/30 03:45:35;;;;;;;50.17;30.03;;;7.10;99.90;;;;;;5015306;28;20205;-69
2022/04/30 03:48:02;;;;;;;49.20;28.70;;;7.10;99.90;;;;;;5015558;28;20289;-67
2022/04/30 03:50:29;;;;;;;49.83;29.10;;;7.10;99.90;;;;;;5015626;28;20299;-69
2022/04/30 03:52:56;;;;;;;48.27;29.23;;;7.10;99.90;;;;;;5015271;28;20293;-68
2022/04/30 03:55:23;;;;;;;48.93;28.47;;;7.20;99.90;;;;;;5015234;28;20222;-69
2022/04/30 03:57:50;;;;;;;51.47;30.20;;;7.20;99.90;;;;;;5015140;28;20203;-69
2022/04/30 04:00:17;;;;;;;50.13;29.77;;;7.20;99.90;;;;;;5014934;28;20616;-67
2022/04/30 04:02:44;;;;;;;49.47;30.23;;;7.20;99.90;;;;;;4999426;28;20319;-69
2022/04/30 04:05:12;;;;;;;57.33;32.07;;;7.30;99.90;;;;;;4995273;28;20594;-69
2022/04/30 04:07:40;;;;;;;58.37;33.70;;;7.50;99.90;;;;;;4995209;28;20208;-70
2022/04/30 04:10:09;;;;;;;55.90;31.50;;;7.60;99.90;;;;;;4995686;28;20196;-70
2022/04/30 04:12:37;;;;;;;57.87;32.37;;;7.70;99.90;;;;;;5013102;28;20223;-70
2022/04/30 04:17:51;;;;;;;54.07;31.30;;;7.70;99.90;;;;;;5025994;28;20298;-70
2022/04/30 04:20:18;;;;;;;53.50;30.50;;;7.80;99.90;;;;;;5014971;28;20224;-69
2022/04/30 04:22:52;;;;;;;51.60;31.03;;;7.80;99.90;;;;;;5014925;28;20206;-68
2022/04/30 04:28:05;;;;;;;54.73;31.77;;;7.90;99.90;;;;;;5018400;28;20203;-68
2022/04/30 04:30:33;;;;;;;55.27;31.87;;;8.00;99.90;;;;;;5018184;28;20286;-67
2022/04/30 04:33:01;;;;;;;53.23;31.17;;;8.10;99.90;;;;;;5018432;28;20254;-68
2022/04/30 04:35:28;;;;;;;58.73;33.37;;;8.10;99.90;;;;;;5018239;28;20638;-69
2022/04/30 04:37:55;;;;;;;60.33;33.90;;;8.10;99.90;;;;;;5018339;28;20203;-69
2022/04/30 04:40:22;;;;;;;57.50;32.97;;;8.20;99.90;;;;;;5020016;28;20409;-68
2022/04/30 04:42:49;;;;;;;60.70;35.47;;;8.20;99.90;;;;;;5027219;28;20214;-68
2022/04/30 04:45:17;;;;;;;63.10;37.03;;;8.20;99.90;;;;;;5018038;28;20234;-68
2022/04/30 04:47:49;;;;;;;62.00;36.77;;;8.30;99.90;;;;;;5018131;28;20257;-69
2022/04/30 04:50:17;;;;;;;66.03;36.97;;;8.30;99.90;;;;;;5018369;28;20206;-69
2022/04/30 04:52:45;;;;;;;62.63;36.90;;;8.40;99.90;;;;;;5017965;28;20223;-69
2022/04/30 04:55:12;;;;;;;69.20;38.23;;;8.60;99.90;;;;;;5017930;28;20227;-69
2022/04/30 04:57:39;;;;;;;70.97;41.10;;;8.60;99.90;;;;;;5017938;28;20649;-69
2022/04/30 05:00:08;;;;;;;69.23;39.70;;;8.70;99.90;;;;;;5017728;28;20654;-69
2022/04/30 05:02:35;;;;;;;70.03;39.60;;;8.70;99.90;;;;;;5031971;28;20230;-69
2022/04/30 05:05:03;;;;;;;65.73;39.77;;;8.80;99.90;;;;;;5037635;28;20319;-69
2022/04/30 05:07:30;;;;;;;73.43;39.00;;;8.90;99.90;;;;;;5021219;28;20190;-69
2022/04/30 05:09:57;;;;;;;72.07;41.23;;;9.00;99.90;;;;;;5037495;28;20226;-69
2022/04/30 05:12:24;;;;;;;68.00;37.90;;;9.00;99.90;;;;;;5031218;28;20242;-69
2022/04/30 05:14:53;;;;;;;62.27;36.90;;;9.10;99.90;;;;;;5033930;28;20286;-68
2022/04/30 05:17:21;;;;;;;68.73;36.97;;;9.10;99.90;;;;;;5017853;28;20261;-68
2022/04/30 05:19:48;;;;;;;58.37;34.83;;;9.30;99.90;;;;;;5034156;28;20200;-69
2022/04/30 05:22:15;;;;;;;62.90;36.43;;;9.40;99.90;;;;;;5033903;28;20199;-69
2022/04/30 05:24:42;;;;;;;55.87;34.53;;;9.40;99.90;;;;;;5034210;28;20346;-68
2022/04/30 05:27:09;;;;;;;62.20;36.80;;;9.50;99.90;;;;;;5017352;28;20641;-69
2022/04/30 05:29:36;;;;;;;60.47;35.90;;;9.50;99.90;;;;;;5017254;28;20246;-69
2022/04/30 05:32:04;;;;;;;57.90;35.90;;;9.60;99.90;;;;;;5017182;28;20227;-69
2022/04/30 05:34:31;;;;;;;60.63;37.17;;;9.70;99.90;;;;;;5035161;28;20659;-67
2022/04/30 05:36:58;;;;;;;62.67;35.90;;;9.80;99.90;;;;;;5016757;28;20261;-68
2022/04/30 05:39:26;;;;;;;63.03;37.53;;;9.80;99.90;;;;;;5026739;28;20196;-68
2022/04/30 05:41:53;;;;;;;60.57;36.60;;;9.90;99.90;;;;;;5017240;28;20550;-68
2022/04/30 05:44:20;;;;;;;72.70;38.40;;;10.00;99.90;;;;;;5016862;28;20250;-69
2022/04/30 05:46:47;;;;;;;62.63;37.10;;;10.10;99.90;;;;;;5020628;28;20226;-68
2022/04/30 05:49:14;;;;;;;61.27;37.07;;;10.10;99.90;;;;;;5024604;28;20257;-68
2022/04/30 05:51:41;;;;;;;57.80;35.80;;;10.20;99.90;;;;;;5016811;28;20298;-69
2022/04/30 05:54:08;;;;;;;59.23;35.73;;;10.30;99.90;;;;;;5016984;28;20196;-69
2022/04/30 05:56:35;;;;;;;61.27;36.93;;;10.40;99.90;;;;;;5016647;28;20307;-67
2022/04/30 05:59:03;;;;;;;57.77;34.83;;;10.50;99.90;;;;;;5016602;28;20646;-68
2022/04/30 06:01:30;;;;;;;58.77;35.03;;;10.60;99.90;;;;;;5016564;28;20251;-68
2022/04/30 06:03:57;;;;;;;62.83;35.60;;;10.60;99.90;;;;;;5016671;28;20198;-68
2022/04/30 06:06:24;;;;;;;59.20;35.53;;;10.80;99.90;;;;;;5034291;28;20196;-68
2022/04/30 06:08:51;;;;;;;59.00;34.00;;;10.80;99.90;;;;;;5016602;28;20223;-66
2022/04/30 06:11:18;;;;;;;57.33;34.57;;;10.90;99.90;;;;;;5016663;28;20229;-69
2022/04/30 06:13:45;;;;;;;53.87;34.57;;;11.00;99.90;;;;;;5034217;28;20641;-69
2022/04/30 06:16:12;;;;;;;52.70;33.33;;;11.10;99.90;;;;;;5016629;28;20294;-68
2022/04/30 06:18:39;;;;;;;57.73;34.93;;;11.20;99.90;;;;;;5016704;28;20227;-68
2022/04/30 06:21:26;;;;;;;51.20;31.23;;;11.30;99.90;;;;;;5016310;28;20571;-67
2022/04/30 06:23:53;;;;;;;52.37;31.90;;;11.40;99.90;;;;;;5016422;28;20210;-67
2022/04/30 06:26:22;;;;;;;50.97;32.03;;;11.50;99.90;;;;;;5016093;28;20210;-67
2022/04/30 06:28:49;;;;;;;54.03;31.57;;;11.70;99.90;;;;;;5018876;28;20192;-68
2022/04/30 06:31:16;;;;;;;54.43;32.03;;;11.80;99.90;;;;;;5024579;28;20200;-65
2022/04/30 06:33:43;;;;;;;52.60;31.73;;;11.90;99.90;;;;;;5016281;28;20203;-68
2022/04/30 06:36:10;;;;;;;53.57;31.77;;;12.00;99.90;;;;;;5015933;28;20203;-68
2022/04/30 06:38:37;;;;;;;49.83;30.50;;;12.10;99.90;;;;;;5016247;28;20679;-68
2022/04/30 06:41:04;;;;;;;52.47;30.63;;;12.20;99.90;;;;;;5016034;28;20242;-66
2022/04/30 06:43:30;;;;;;;48.43;28.53;;;12.30;99.90;;;;;;5033741;28;20241;-68
2022/04/30 06:45:57;;;;;;;45.43;27.47;;;12.40;99.90;;;;;;5016095;28;20195;-67
2022/04/30 06:48:29;;;;;;;38.37;23.03;;;12.40;99.90;;;;;;5014987;28;20253;-68
2022/04/30 06:50:56;;;;;;;39.40;25.23;;;12.40;99.90;;;;;;5015922;28;20261;-68
2022/04/30 06:58:55;;;;;;;36.30;21.73;;;12.90;99.90;;;;;;5019242;28;20200;-68
2022/04/30 07:01:38;;;;;;;32.20;21.47;;;13.00;99.90;;;;;;5026381;28;20255;-65
2022/04/30 07:04:06;;;;;;;29.07;18.63;;;13.10;99.90;;;;;;5035115;28;20199;-67
2022/04/30 07:06:34;;;;;;;32.17;20.10;;;13.30;99.90;;;;;;5035585;28;20199;-66
2022/04/30 07:09:07;;;;;;;26.20;15.97;;;13.40;99.90;;;;;;5035421;28;20305;-67
2022/04/30 07:11:34;;;;;;;26.47;14.53;;;13.60;99.90;;;;;;5014512;28;20202;-65
2022/04/30 07:14:01;;;;;;;23.93;13.97;;;13.60;99.90;;;;;;5051414;28;20258;-66
2022/04/30 07:16:28;;;;;;;20.50;13.07;;;13.80;99.90;;;;;;5038223;28;20200;-66
2022/04/30 07:18:56;;;;;;;16.47;8.90;;;13.80;99.90;;;;;;5054528;28;20198;-66
2022/04/30 07:21:23;;;;;;;9.30;5.07;;;14.00;99.90;;;;;;5054428;28;20563;-66
2022/04/30 07:23:51;;;;;;;12.43;8.10;;;14.10;99.90;;;;;;5054659;28;20293;-66
2022/04/30 07:26:18;;;;;;;9.13;6.13;;;14.10;99.90;;;;;;5054552;28;20574;-66
2022/04/30 07:28:46;;;;;;;11.93;6.57;;;14.10;99.90;;;;;;5054586;28;20289;-66
2022/04/30 07:31:13;;;;;;;14.27;7.57;;;14.20;99.90;;;;;;5054389;28;20682;-63
2022/04/30 07:33:41;;;;;;;11.80;7.30;;;14.20;99.90;;;;;;5025871;28;20571;-67
2022/04/30 07:36:08;;;;;;;13.07;7.73;;;14.30;99.90;;;;;;5014749;28;20275;-65
2022/04/30 07:38:35;;;;;;;7.20;4.70;;;14.40;99.90;;;;;;5014897;28;20298;-66
2022/04/30 07:41:02;;;;;;;10.50;5.60;;;14.50;97.00;;;;;;5045176;28;20279;-67
2022/04/30 07:43:29;;;;;;;8.13;4.90;;;14.60;98.00;;;;;;5072271;28;20285;-66
2022/04/30 07:45:56;;;;;;;7.50;4.73;;;14.70;95.90;;;;;;5071136;28;20222;-66
2022/04/30 07:48:23;;;;;;;8.83;5.30;;;14.80;94.60;;;;;;5054476;28;20581;-66
2022/04/30 07:50:51;;;;;;;9.67;5.00;;;14.90;95.20;;;;;;5072687;28;20203;-67
2022/04/30 07:53:18;;;;;;;8.70;5.33;;;14.90;92.80;;;;;;5054126;28;20267;-66
2022/04/30 07:55:45;;;;;;;10.20;5.07;;;14.90;92.00;;;;;;5054344;28;20261;-67
2022/04/30 07:58:12;;;;;;;6.10;3.40;;;14.90;92.10;;;;;;5054714;28;20186;-67
2022/04/30 08:00:39;;;;;;;5.20;2.63;;;15.00;89.70;;;;;;5075829;28;20558;-69
2022/04/30 08:03:07;;;;;;;5.10;2.50;;;15.00;86.10;;;;;;5057562;28;20230;-69
2022/04/30 08:05:34;;;;;;;6.93;2.70;;;15.20;87.80;;;;;;5029036;28;20770;-67
2022/04/30 08:08:01;;;;;;;4.90;3.23;;;15.80;86.10;;;;;;5017977;28;20196;-69
2022/04/30 08:10:29;;;;;;;6.37;3.00;;;17.00;79.50;;;;;;5039136;28;20640;-68
2022/04/30 08:12:56;;;;;;;5.60;2.30;;;18.20;68.90;;;;;;5058306;28;20226;-69
2022/04/30 08:15:24;;;;;;;6.10;2.80;;;19.20;65.40;;;;;;5057422;28;20623;-68
2022/04/30 08:17:52;;;;;;;4.87;1.90;;;20.00;60.50;;;;;;5057644;28;20202;-68
2022/04/30 08:20:19;;;;;;;3.80;2.30;;;20.40;56.90;;;;;;5057871;28;20190;-69
2022/04/30 08:22:46;;;;;;;6.83;2.40;;;20.70;51.30;;;;;;5057729;28;20206;-68
2022/04/30 08:25:13;;;;;;;4.17;1.73;;;19.90;49.30;;;;;;5057537;28;20539;-68
2022/04/30 08:27:41;;;;;;;4.73;1.90;;;19.70;50.60;;;;;;5057697;28;20206;-68
2022/04/30 08:30:10;;;;;;;4.63;2.00;;;20.30;48.90;;;;;;5057515;28;20248;-70
2022/04/30 08:32:37;;;;;;;3.60;2.20;;;21.10;47.40;;;;;;5075586;28;20650;-67
2022/04/30 08:35:04;;;;;;;5.10;2.23;;;21.10;45.70;;;;;;5057262;28;20290;-68
2022/04/30 08:37:51;;;;;;;3.63;2.40;;;21.10;45.70;;;;;;5057635;28;20189;-67
2022/04/30 08:40:19;;;;;;;4.50;3.00;;;21.60;46.40;;;;;;5057746;28;20248;-68
2022/04/30 08:42:46;;;;;;;4.95;3.25;;;22.10;48.20;;;;;;5052455;28;20190;-68
2022/04/30 08:45:13;;;;;;;5.38;2.80;;;22.20;44.00;;;;;;5034925;28;20262;-69
2022/04/30 08:47:41;;;;;;;5.97;3.13;;;21.70;45.10;;;;;;5018243;28;20219;-68
2022/04/30 08:50:10;;;;;;;6.80;3.22;;;22.20;45.30;;;;;;5036328;28;20302;-69
2022/04/30 08:52:38;;;;;;;4.60;3.05;;;22.40;43.80;;;;;;5018596;28;20306;-68
2022/04/30 08:55:06;;;;;;;6.10;3.10;;;22.50;45.20;;;;;;5017673;28;20281;-69
2022/04/30 08:57:33;;;;;;;5.13;2.72;;;22.50;43.60;;;;;;5017968;28;20287;-69
2022/04/30 09:00:01;;;;;;;4.47;2.88;;;22.70;45.10;;;;;;5018108;28;20206;-67
2022/04/30 09:02:28;;;;;;;5.00;3.10;;;22.80;44.10;;;;;;5018150;28;20612;-67
2022/04/30 09:04:55;;;;;;;4.05;2.70;;;23.20;41.70;;;;;;5035426;28;20608;-67
2022/04/30 09:07:24;;;;;;;5.15;2.50;;;23.20;40.90;;;;;;5035631;28;20270;-69
2022/04/30 09:09:57;;;;;;;3.88;2.60;;;23.40;43.60;;;;;;5016838;28;20206;-68
2022/04/30 09:12:25;;;;;;;4.57;2.60;;;23.80;43.30;;;;;;5017592;28;20633;-68
2022/04/30 09:14:52;;;;;;;4.78;2.67;;;23.60;42.90;;;;;;5035330;28;20650;-69
2022/04/30 09:17:22;;;;;;;3.03;2.25;;;23.60;41.50;;;;;;5017598;28;20648;-69
2022/04/30 09:19:52;;;;;;;4.75;2.72;;;23.60;41.70;;;;;;5017721;28;20199;-69
2022/04/30 09:22:36;;;;;;;5.03;2.45;;;23.40;41.80;;;;;;5017809;28;20214;-68
2022/04/30 09:25:07;;;;;;;3.78;2.53;;;23.70;42.90;;;;;;5017908;28;20223;-69
2022/04/30 09:27:54;;;;;;;5.90;2.45;;;23.70;40.90;;;;;;5017529;28;20196;-68
2022/04/30 09:30:29;;;;;;;3.97;2.50;;;23.50;39.70;;;;;;5017482;28;20302;-68
2022/04/30 09:33:04;;;;;;;6.13;3.13;;;23.10;40.50;;;;;;5017609;28;20221;-68
2022/04/30 09:38:19;;;;;;;4.03;2.50;;;23.40;40.50;;;;;;5016978;28;20249;-68
2022/04/30 09:40:57;;;;;;;5.05;2.30;;;23.60;38.80;;;;;;5035383;28;20196;-69
2022/04/30 09:43:31;;;;;;;3.30;2.17;;;23.60;39.70;;;;;;5034827;28;20645;-69
2022/04/30 09:46:07;;;;;;;4.15;2.30;;;24.00;37.90;;;;;;5017324;28;20206;-68
2022/04/30 09:54:07;;;;;;;3.13;2.10;;;24.20;40.00;;;;;;5033021;28;20233;-68
2022/04/30 09:56:39;;;;;;;4.10;2.20;;;24.50;37.70;;;;;;5034779;28;20257;-69
2022/04/30 09:59:11;;;;;;;5.82;2.33;;;24.70;36.10;;;;;;5034692;28;20191;-70
2022/04/30 10:01:43;;;;;;;4.22;2.40;;;24.70;37.20;;;;;;5016750;28;20330;-70
2022/04/30 10:04:16;;;;;;;5.60;2.70;;;24.80;39.20;;;;;;5033099;28;20712;-68
2022/04/30 10:06:44;;;;;;;4.18;3.00;;;25.00;39.60;;;;;;5015832;28;20688;-67
2022/04/30 10:09:28;;;;;;;7.10;3.30;;;25.30;38.70;;;;;;5034436;28;20641;-69
2022/04/30 10:12:11;;;;;;;4.82;2.70;;;25.20;36.20;;;;;;5016468;28;20552;-69
2022/04/30 10:14:56;;;;;;;5.10;3.00;;;25.00;37.50;;;;;;5039719;28;20203;-69
2022/04/30 10:17:25;;;;;;;4.75;2.63;;;25.30;38.50;;;;;;5036100;28;20286;-64
2022/04/30 10:20:19;;;;;;;6.53;2.50;;;25.70;39.00;;;;;;5073520;28;20190;-68
2022/04/30 10:22:53;;;;;;;5.57;3.20;;;26.20;38.60;;;;;;5055723;28;20186;-68
2022/04/30 10:25:50;;;;;;;6.60;2.80;;;26.20;36.60;;;;;;5055386;28;20255;-67
2022/04/30 10:28:21;;;;;;;7.60;2.70;;;26.30;35.70;;;;;;4975783;28;20211;-67
2022/04/30 10:30:59;;;;;;;4.57;2.92;;;26.30;34.30;;;;;;4975636;28;20197;-67
2022/04/30 10:33:27;;;;;;;4.97;3.10;;;26.40;35.00;;;;;;4975614;28;20630;-69
2022/04/30 10:36:09;;;;;;;5.25;3.00;;;26.30;33.70;;;;;;4975660;28;20307;-68
2022/04/30 10:38:37;;;;;;;5.38;2.85;;;26.10;34.30;;;;;;4991870;28;20646;-67
2022/04/30 10:41:08;;;;;;;3.92;2.60;;;26.30;34.90;;;;;;4975589;28;20307;-68
2022/04/30 10:43:40;;;;;;;5.65;2.50;;;26.30;35.70;;;;;;4991865;28;20196;-68
2022/04/30 10:46:20;;;;;;;4.88;2.53;;;26.20;34.70;;;;;;4973854;28;20659;-67
2022/04/30 10:48:47;;;;;;;7.88;2.80;;;26.40;34.90;;;;;;4969920;28;20290;-66
2022/04/30 10:51:16;;;;;;;5.13;2.63;;;25.60;33.70;;;;;;4953055;29;20281;-67
2022/04/30 10:53:45;;;;;;;4.05;2.55;;;25.70;35.80;;;;;;4936642;29;20317;-65
2022/04/30 10:56:13;;;;;;;3.78;2.40;;;26.20;36.60;;;;;;4942727;29;20301;-67
2022/04/30 10:58:43;;;;;;;5.13;2.80;;;26.40;35.10;;;;;;4952921;29;20257;-67
2022/04/30 11:01:18;;;;;;;4.30;2.30;;;26.50;34.50;;;;;;4950163;28;20235;-66
2022/04/30 11:03:46;;;;;;;4.88;2.60;;;26.50;35.40;;;;;;4940439;28;20202;-68
2022/04/30 11:06:25;;;;;;;6.90;2.40;;;26.60;34.30;;;;;;4995626;28;20193;-66
2022/04/30 11:09:00;;;;;;;4.30;2.47;;;26.50;33.20;;;;;;4995432;28;20582;-68
2022/04/30 11:11:28;;;;;;;3.25;2.13;;;26.40;32.10;;;;;;4995755;28;20195;-66
2022/04/30 11:14:09;;;;;;;6.00;2.30;;;26.10;33.00;;;;;;5013177;28;20216;-70
2022/04/30 11:16:50;;;;;;;3.53;2.20;;;26.00;32.90;;;;;;4996178;28;20203;-67
2022/04/30 11:19:19;;;;;;;3.15;2.10;;;26.10;32.80;;;;;;4995814;28;20286;-67
2022/04/30 11:21:51;;;;;;;5.10;2.33;;;26.40;32.80;;;;;;4995788;28;20295;-68
2022/04/30 11:24:29;;;;;;;3.97;2.17;;;25.90;32.20;;;;;;4995646;28;20196;-68
2022/04/30 11:27:04;;;;;;;3.95;2.60;;;25.90;33.00;;;;;;4995661;28;20234;-68
2022/04/30 11:29:32;;;;;;;3.58;2.20;;;24.60;33.50;;;;;;5013483;28;20282;-68
2022/04/30 11:32:00;;;;;;;3.95;2.00;;;25.40;35.30;;;;;;4995675;28;20232;-68
2022/04/30 11:34:27;;;;;;;3.55;2.20;;;26.20;35.20;;;;;;4998001;28;20365;-68
2022/04/30 11:36:59;;;;;;;4.97;2.10;;;26.80;33.80;;;;;;5019842;28;20280;-68
2022/04/30 11:39:27;;;;;;;3.20;1.90;;;26.80;33.30;;;;;;5008097;28;20235;-68
2022/04/30 11:41:55;;;;;;;4.57;2.00;;;26.20;33.10;;;;;;5017317;28;20239;-69
2022/04/30 11:44:24;;;;;;;6.40;2.10;;;26.20;35.20;;;;;;4999965;28;20235;-69
2022/04/30 11:46:52;;;;;;;4.03;1.73;;;26.50;34.00;;;;;;5017201;28;20299;-69
2022/04/30 11:49:21;;;;;;;4.70;2.10;;;26.40;34.60;;;;;;4999677;28;20204;-68
2022/04/30 11:52:06;;;;;;;4.35;2.30;;;25.80;33.10;;;;;;4999350;28;20259;-68
2022/04/30 11:54:38;;;;;;;3.05;2.00;;;24.60;34.40;;;;;;4999388;28;20314;-67
2022/04/30 11:57:05;;;;;;;4.38;2.30;;;25.00;35.20;;;;;;5016978;28;20214;-69
2022/04/30 11:59:39;;;;;;;3.08;2.00;;;25.20;35.30;;;;;;4999382;28;20259;-68
2022/04/30 12:02:12;;;;;;;3.20;1.98;;;25.30;34.50;;;;;;4999066;28;20224;-70
2022/04/30 12:04:41;;;;;;;7.22;2.00;;;25.20;34.60;;;;;;4999183;28;20201;-67
2022/04/30 12:07:10;;;;;;;3.40;1.70;;;25.50;35.40;;;;;;4999414;28;20204;-70
2022/04/30 12:09:43;;;;;;;4.72;1.98;;;26.20;35.80;;;;;;4999325;28;20192;-71
2022/04/30 12:12:16;;;;;;;3.35;1.88;;;26.00;33.20;;;;;;4998802;28;20203;-69
2022/04/30 12:14:44;;;;;;;5.07;1.88;;;25.60;34.60;;;;;;5033216;28;20236;-79
2022/04/30 12:17:11;;;;;;;3.85;1.83;;;25.10;34.60;;;;;;5056150;28;20536;-66
2022/04/30 12:25:34;;;;;;;2.92;1.75;;;24.60;36.90;;;;;;4994123;28;20197;-69
2022/04/30 12:28:06;;;;;;;5.50;2.05;;;24.60;35.40;;;;;;4975040;28;20308;-67
2022/04/30 12:30:53;;;;;;;5.28;2.05;;;24.00;35.30;;;;;;4974742;28;20211;-73
2022/04/30 12:33:21;;;;;;;2.63;1.88;;;24.00;36.70;;;;;;4958776;28;20224;-76
2022/04/30 12:35:58;;;;;;;5.15;1.75;;;24.20;36.10;;;;;;4958799;28;20201;-78
2022/04/30 12:38:29;;;;;;;3.25;1.80;;;24.60;35.10;;;;;;4975086;28;20558;-65
2022/04/30 12:40:58;;;;;;;3.45;1.70;;;25.10;34.80;;;;;;4959362;28;20327;-83
2022/04/30 12:43:26;;;;;;;3.92;1.70;;;25.20;34.40;;;;;;4960598;28;20292;-79
2022/04/30 12:45:53;;;;;;;2.78;1.50;;;25.70;34.00;;;;;;4974560;28;20231;-66
2022/04/30 12:48:20;;;;;;;3.45;1.77;;;25.80;33.30;;;;;;5015708;28;20705;-68
2022/04/30 12:50:47;;;;;;;4.68;2.00;;;25.70;33.80;;;;;;4997586;28;20243;-76
2022/04/30 12:53:14;;;;;;;3.33;1.80;;;26.00;33.50;;;;;;5015998;28;20290;-66
2022/04/30 12:55:41;;;;;;;2.50;1.60;;;26.40;33.90;;;;;;5013892;28;20251;-66
2022/04/30 12:58:10;;;;;;;3.53;1.70;;;26.50;33.10;;;;;;5032548;28;20203;-70
2022/04/30 13:00:37;;;;;;;2.58;1.60;;;26.40;31.50;;;;;;5040884;28;20199;-72
2022/04/30 13:03:05;;;;;;;2.75;1.60;;;25.90;32.50;;;;;;5036474;28;20231;-71
2022/04/30 13:05:33;;;;;;;4.00;1.80;;;25.60;34.00;;;;;;5037511;28;20202;-76
2022/04/30 13:08:00;;;;;;;2.22;1.60;;;25.40;33.40;;;;;;5040093;28;20238;-66
2022/04/30 13:16:00;;;;;;;3.75;1.80;;;23.40;36.20;;;;;;5047422;28;20189;-68
2022/04/30 13:18:28;;;;;;;2.50;1.60;;;23.30;35.80;;;;;;5057659;28;20198;-72
2022/04/30 13:20:55;;;;;;;4.07;2.00;;;23.20;36.00;;;;;;5042161;28;20194;-69
2022/04/30 13:23:21;;;;;;;2.77;1.70;;;23.00;36.50;;;;;;5056623;28;20251;-68
2022/04/30 13:25:48;;;;;;;3.93;1.73;;;23.00;36.50;;;;;;5056777;28;20198;-68
2022/04/30 13:28:15;;;;;;;2.72;1.90;;;22.70;37.80;;;;;;5074839;28;20191;-68
2022/04/30 13:30:42;;;;;;;3.07;1.63;;;21.90;38.40;;;;;;5056977;28;20297;-68
2022/04/30 13:33:09;;;;;;;3.13;1.67;;;22.20;39.20;;;;;;5056791;28;20183;-67
2022/04/30 13:35:36;;;;;;;2.33;1.50;;;22.50;38.90;;;;;;5056542;28;20202;-69
2022/04/30 13:38:04;;;;;;;3.07;1.70;;;22.70;37.90;;;;;;5040078;28;20237;-68
2022/04/30 13:40:31;;;;;;;2.30;1.70;;;22.60;38.10;;;;;;5057037;28;20705;-67